sensor_id;sensor_type;location;lat;lon;timestamp;P1;durP1;ratioP1;P2;durP2;ratioP2
20970;SDS011;10644;48.834;10.088;2023-03-07T00:00:24;17.90;;;9.53;;
20970;SDS011;10644;48.834;10.088;2023-03-07T00:03:02;21.00;;;10.20;;
20970;SDS011;10644;48.834;10.088;2023-03-07T00:05:29;24.58;;;10.27;;
20970;SDS011;10644;48.834;10.088;2023-03-07T00:10:59;21.00;;;8.80;;
20970;SDS011;10644;48.834;10.088;2023-03-07T00:16:23;20.92;;;9.98;;
20970;SDS011;10644;48.834;10.088;2023-03-07T00:19:01;19.38;;;9.20;;
20970;SDS011;10644;48.834;10.088;2023-03-07T00:21:36;25.05;;;10.52;;
20970;SDS011;10644;48.834;10.088;2023-03-07T00:24:16;22.35;;;9.32;;
20970;SDS011;10644;48.834;10.088;2023-03-07T00:26:49;21.33;;;9.20;;
20970;SDS011;10644;48.834;10.088;2023-03-07T00:29:30;22.70;;;10.02;;
20970;SDS011;10644;48.834;10.088;2023-03-07T00:32:02;16.50;;;8.20;;
20970;SDS011;10644;48.834;10.088;2023-03-07T00:34:38;21.13;;;9.85;;
20970;SDS011;10644;48.834;10.088;2023-03-07T00:37:05;17.23;;;9.18;;
20970;SDS011;10644;48.834;10.088;2023-03-07T00:42:24;20.42;;;9.30;;
20970;SDS011;10644;48.834;10.088;2023-03-07T00:47:20;22.38;;;9.95;;
20970;SDS011;10644;48.834;10.088;2023-03-07T00:49:45;18.60;;;10.23;;
20970;SDS011;10644;48.834;10.088;2023-03-07T00:52:22;20.93;;;9.70;;
20970;SDS011;10644;48.834;10.088;2023-03-07T00:55:00;19.65;;;9.60;;
20970;SDS011;10644;48.834;10.088;2023-03-07T00:57:34;15.45;;;8.95;;
20970;SDS011;10644;48.834;10.088;2023-03-07T01:00:02;20.95;;;10.40;;
20970;SDS011;10644;48.834;10.088;2023-03-07T01:08:33;16.05;;;8.60;;
20970;SDS011;10644;48.834;10.088;2023-03-07T01:11:07;16.42;;;8.80;;
20970;SDS011;10644;48.834;10.088;2023-03-07T01:13:42;19.42;;;10.05;;
20970;SDS011;10644;48.834;10.088;2023-03-07T01:19:08;18.10;;;9.13;;
20970;SDS011;10644;48.834;10.088;2023-03-07T01:21:41;17.30;;;8.95;;
20970;SDS011;10644;48.834;10.088;2023-03-07T01:24:16;15.90;;;9.20;;
20970;SDS011;10644;48.834;10.088;2023-03-07T01:29:47;14.45;;;8.50;;
20970;SDS011;10644;48.834;10.088;2023-03-07T01:34:48;20.00;;;9.95;;
20970;SDS011;10644;48.834;10.088;2023-03-07T01:37:14;19.10;;;9.70;;
20970;SDS011;10644;48.834;10.088;2023-03-07T01:39:56;19.30;;;9.82;;
20970;SDS011;10644;48.834;10.088;2023-03-07T01:42:21;15.98;;;9.10;;
20970;SDS011;10644;48.834;10.088;2023-03-07T01:53:30;18.92;;;8.73;;
20970;SDS011;10644;48.834;10.088;2023-03-07T01:56:07;21.93;;;9.37;;
20970;SDS011;10644;48.834;10.088;2023-03-07T01:58:47;19.40;;;9.20;;
20970;SDS011;10644;48.834;10.088;2023-03-07T02:01:28;17.92;;;9.50;;
20970;SDS011;10644;48.834;10.088;2023-03-07T02:06:50;18.85;;;9.50;;
20970;SDS011;10644;48.834;10.088;2023-03-07T02:09:17;16.50;;;8.32;;
20970;SDS011;10644;48.834;10.088;2023-03-07T02:27:07;24.25;;;8.10;;
20970;SDS011;10644;48.834;10.088;2023-03-07T02:29:39;16.98;;;8.75;;
20970;SDS011;10644;48.834;10.088;2023-03-07T02:37:37;17.27;;;8.32;;
20970;SDS011;10644;48.834;10.088;2023-03-07T02:40:04;18.05;;;9.48;;
20970;SDS011;10644;48.834;10.088;2023-03-07T02:42:34;17.80;;;9.02;;
20970;SDS011;10644;48.834;10.088;2023-03-07T02:45:19;17.25;;;8.85;;
20970;SDS011;10644;48.834;10.088;2023-03-07T02:50:16;18.63;;;10.45;;
20970;SDS011;10644;48.834;10.088;2023-03-07T02:55:46;16.45;;;9.52;;
20970;SDS011;10644;48.834;10.088;2023-03-07T02:58:13;18.88;;;8.65;;
20970;SDS011;10644;48.834;10.088;2023-03-07T03:00:40;17.35;;;10.00;;
20970;SDS011;10644;48.834;10.088;2023-03-07T03:03:17;18.48;;;8.75;;
20970;SDS011;10644;48.834;10.088;2023-03-07T03:05:56;19.00;;;9.82;;
20970;SDS011;10644;48.834;10.088;2023-03-07T03:08:34;16.85;;;8.57;;
20970;SDS011;10644;48.834;10.088;2023-03-07T03:11:02;24.30;;;9.45;;
20970;SDS011;10644;48.834;10.088;2023-03-07T03:13:43;17.02;;;9.98;;
20970;SDS011;10644;48.834;10.088;2023-03-07T03:19:05;22.77;;;10.23;;
20970;SDS011;10644;48.834;10.088;2023-03-07T03:21:48;17.00;;;8.18;;
20970;SDS011;10644;48.834;10.088;2023-03-07T03:27:19;22.20;;;10.32;;
20970;SDS011;10644;48.834;10.088;2023-03-07T03:29:45;21.08;;;10.85;;
20970;SDS011;10644;48.834;10.088;2023-03-07T03:35:14;19.35;;;9.98;;
20970;SDS011;10644;48.834;10.088;2023-03-07T03:37:54;16.27;;;9.65;;
20970;SDS011;10644;48.834;10.088;2023-03-07T03:40:31;19.90;;;10.05;;
20970;SDS011;10644;48.834;10.088;2023-03-07T03:49:03;24.77;;;11.23;;
20970;SDS011;10644;48.834;10.088;2023-03-07T03:54:49;19.83;;;10.50;;
20970;SDS011;10644;48.834;10.088;2023-03-07T03:57:21;28.38;;;11.13;;
20970;SDS011;10644;48.834;10.088;2023-03-07T04:00:00;18.23;;;8.50;;
20970;SDS011;10644;48.834;10.088;2023-03-07T04:02:26;24.98;;;10.95;;
20970;SDS011;10644;48.834;10.088;2023-03-07T04:07:41;22.92;;;10.77;;
20970;SDS011;10644;48.834;10.088;2023-03-07T04:10:08;20.00;;;10.95;;
20970;SDS011;10644;48.834;10.088;2023-03-07T04:12:42;19.52;;;10.13;;
20970;SDS011;10644;48.834;10.088;2023-03-07T04:15:21;24.17;;;11.25;;
20970;SDS011;10644;48.834;10.088;2023-03-07T04:17:47;20.38;;;10.23;;
20970;SDS011;10644;48.834;10.088;2023-03-07T04:20:19;24.52;;;10.90;;
20970;SDS011;10644;48.834;10.088;2023-03-07T04:25:58;22.52;;;10.98;;
20970;SDS011;10644;48.834;10.088;2023-03-07T04:28:33;23.55;;;10.65;;
20970;SDS011;10644;48.834;10.088;2023-03-07T04:31:12;21.02;;;10.48;;
20970;SDS011;10644;48.834;10.088;2023-03-07T04:33:46;19.25;;;10.45;;
20970;SDS011;10644;48.834;10.088;2023-03-07T04:36:20;20.60;;;10.35;;
20970;SDS011;10644;48.834;10.088;2023-03-07T04:38:47;20.23;;;10.80;;
20970;SDS011;10644;48.834;10.088;2023-03-07T04:41:23;22.67;;;11.52;;
20970;SDS011;10644;48.834;10.088;2023-03-07T04:44:06;22.45;;;10.48;;
20970;SDS011;10644;48.834;10.088;2023-03-07T04:46:40;20.90;;;11.70;;
20970;SDS011;10644;48.834;10.088;2023-03-07T04:49:07;19.92;;;10.43;;
20970;SDS011;10644;48.834;10.088;2023-03-07T04:51:49;16.17;;;9.15;;
20970;SDS011;10644;48.834;10.088;2023-03-07T04:54:26;20.45;;;10.18;;
20970;SDS011;10644;48.834;10.088;2023-03-07T04:59:28;17.25;;;9.80;;
20970;SDS011;10644;48.834;10.088;2023-03-07T05:01:57;20.25;;;10.40;;
20970;SDS011;10644;48.834;10.088;2023-03-07T05:07:16;17.55;;;9.65;;
20970;SDS011;10644;48.834;10.088;2023-03-07T05:09:54;20.30;;;10.20;;
20970;SDS011;10644;48.834;10.088;2023-03-07T05:12:22;29.88;;;10.82;;
20970;SDS011;10644;48.834;10.088;2023-03-07T05:15:04;19.83;;;9.63;;
20970;SDS011;10644;48.834;10.088;2023-03-07T05:17:39;20.30;;;10.45;;
20970;SDS011;10644;48.834;10.088;2023-03-07T05:20:06;21.63;;;10.50;;
20970;SDS011;10644;48.834;10.088;2023-03-07T05:28:04;26.05;;;12.02;;
20970;SDS011;10644;48.834;10.088;2023-03-07T05:30:36;17.48;;;9.93;;
20970;SDS011;10644;48.834;10.088;2023-03-07T05:36:08;19.25;;;9.68;;
20970;SDS011;10644;48.834;10.088;2023-03-07T05:41:43;24.02;;;11.93;;
20970;SDS011;10644;48.834;10.088;2023-03-07T05:44:21;21.35;;;10.68;;
20970;SDS011;10644;48.834;10.088;2023-03-07T05:47:00;29.00;;;14.13;;
20970;SDS011;10644;48.834;10.088;2023-03-07T05:49:33;27.95;;;14.40;;
20970;SDS011;10644;48.834;10.088;2023-03-07T05:52:00;27.35;;;11.82;;
20970;SDS011;10644;48.834;10.088;2023-03-07T05:54:31;40.38;;;19.80;;
20970;SDS011;10644;48.834;10.088;2023-03-07T06:00:25;22.02;;;9.98;;
20970;SDS011;10644;48.834;10.088;2023-03-07T06:02:59;29.55;;;14.02;;
20970;SDS011;10644;48.834;10.088;2023-03-07T06:05:26;37.45;;;18.77;;
20970;SDS011;10644;48.834;10.088;2023-03-07T06:07:51;25.20;;;12.63;;
20970;SDS011;10644;48.834;10.088;2023-03-07T06:10:32;22.57;;;9.40;;
20970;SDS011;10644;48.834;10.088;2023-03-07T06:13:02;17.67;;;9.10;;
20970;SDS011;10644;48.834;10.088;2023-03-07T06:15:31;14.77;;;8.35;;
20970;SDS011;10644;48.834;10.088;2023-03-07T06:17:59;15.15;;;8.27;;
20970;SDS011;10644;48.834;10.088;2023-03-07T06:20:33;17.45;;;9.30;;
20970;SDS011;10644;48.834;10.088;2023-03-07T06:23:14;16.27;;;8.68;;
20970;SDS011;10644;48.834;10.088;2023-03-07T06:25:53;25.48;;;11.30;;
20970;SDS011;10644;48.834;10.088;2023-03-07T06:28:20;20.65;;;9.43;;
20970;SDS011;10644;48.834;10.088;2023-03-07T06:30:53;20.73;;;9.60;;
20970;SDS011;10644;48.834;10.088;2023-03-07T06:33:25;23.65;;;10.63;;
20970;SDS011;10644;48.834;10.088;2023-03-07T06:35:57;16.05;;;9.35;;
20970;SDS011;10644;48.834;10.088;2023-03-07T06:41:12;22.92;;;10.45;;
20970;SDS011;10644;48.834;10.088;2023-03-07T06:43:49;21.50;;;10.82;;
20970;SDS011;10644;48.834;10.088;2023-03-07T06:46:18;21.75;;;9.77;;
20970;SDS011;10644;48.834;10.088;2023-03-07T06:48:47;25.00;;;10.15;;
20970;SDS011;10644;48.834;10.088;2023-03-07T06:53:56;31.35;;;10.65;;
20970;SDS011;10644;48.834;10.088;2023-03-07T06:56:39;18.40;;;7.25;;
20970;SDS011;10644;48.834;10.088;2023-03-07T06:59:11;26.08;;;10.80;;
20970;SDS011;10644;48.834;10.088;2023-03-07T07:01:48;21.90;;;10.23;;
20970;SDS011;10644;48.834;10.088;2023-03-07T07:04:28;23.52;;;11.02;;
20970;SDS011;10644;48.834;10.088;2023-03-07T07:06:53;18.52;;;7.47;;
20970;SDS011;10644;48.834;10.088;2023-03-07T07:09:20;30.50;;;11.00;;
20970;SDS011;10644;48.834;10.088;2023-03-07T07:11:46;21.48;;;10.30;;
20970;SDS011;10644;48.834;10.088;2023-03-07T07:14:19;20.17;;;10.27;;
20970;SDS011;10644;48.834;10.088;2023-03-07T07:16:51;20.80;;;10.25;;
20970;SDS011;10644;48.834;10.088;2023-03-07T07:27:24;17.75;;;9.27;;
20970;SDS011;10644;48.834;10.088;2023-03-07T07:29:52;19.75;;;8.95;;
20970;SDS011;10644;48.834;10.088;2023-03-07T07:32:18;22.23;;;10.53;;
20970;SDS011;10644;48.834;10.088;2023-03-07T07:34:43;21.80;;;10.70;;
20970;SDS011;10644;48.834;10.088;2023-03-07T07:37:12;22.73;;;9.43;;
20970;SDS011;10644;48.834;10.088;2023-03-07T07:39:39;18.13;;;9.00;;
20970;SDS011;10644;48.834;10.088;2023-03-07T07:42:13;26.90;;;10.32;;
20970;SDS011;10644;48.834;10.088;2023-03-07T07:44:45;21.35;;;9.45;;
20970;SDS011;10644;48.834;10.088;2023-03-07T07:47:18;25.77;;;9.05;;
20970;SDS011;10644;48.834;10.088;2023-03-07T07:49:46;24.55;;;10.50;;
20970;SDS011;10644;48.834;10.088;2023-03-07T07:52:19;21.90;;;9.25;;
20970;SDS011;10644;48.834;10.088;2023-03-07T07:54:45;20.15;;;9.77;;
20970;SDS011;10644;48.834;10.088;2023-03-07T07:57:20;21.53;;;9.20;;
20970;SDS011;10644;48.834;10.088;2023-03-07T07:59:47;18.48;;;9.07;;
20970;SDS011;10644;48.834;10.088;2023-03-07T08:02:22;13.35;;;6.72;;
20970;SDS011;10644;48.834;10.088;2023-03-07T08:04:51;20.17;;;8.18;;
20970;SDS011;10644;48.834;10.088;2023-03-07T08:07:26;22.05;;;9.43;;
20970;SDS011;10644;48.834;10.088;2023-03-07T08:12:54;17.02;;;7.43;;
20970;SDS011;10644;48.834;10.088;2023-03-07T08:15:26;24.93;;;9.77;;
20970;SDS011;10644;48.834;10.088;2023-03-07T08:17:54;16.10;;;8.55;;
20970;SDS011;10644;48.834;10.088;2023-03-07T08:20:25;15.75;;;9.02;;
20970;SDS011;10644;48.834;10.088;2023-03-07T08:25:42;19.52;;;7.97;;
20970;SDS011;10644;48.834;10.088;2023-03-07T08:33:48;17.77;;;8.23;;
20970;SDS011;10644;48.834;10.088;2023-03-07T08:36:15;19.00;;;9.00;;
20970;SDS011;10644;48.834;10.088;2023-03-07T08:38:42;19.27;;;8.98;;
20970;SDS011;10644;48.834;10.088;2023-03-07T08:41:08;18.67;;;8.32;;
20970;SDS011;10644;48.834;10.088;2023-03-07T08:43:40;20.98;;;8.75;;
20970;SDS011;10644;48.834;10.088;2023-03-07T08:46:06;24.33;;;9.38;;
20970;SDS011;10644;48.834;10.088;2023-03-07T08:48:43;18.33;;;9.00;;
20970;SDS011;10644;48.834;10.088;2023-03-07T08:51:10;20.27;;;8.55;;
20970;SDS011;10644;48.834;10.088;2023-03-07T08:53:40;16.92;;;8.25;;
20970;SDS011;10644;48.834;10.088;2023-03-07T08:56:24;17.65;;;8.48;;
20970;SDS011;10644;48.834;10.088;2023-03-07T08:58:52;14.15;;;7.93;;
20970;SDS011;10644;48.834;10.088;2023-03-07T09:01:18;13.93;;;8.07;;
20970;SDS011;10644;48.834;10.088;2023-03-07T09:06:48;19.23;;;8.48;;
20970;SDS011;10644;48.834;10.088;2023-03-07T09:09:17;13.77;;;7.70;;
20970;SDS011;10644;48.834;10.088;2023-03-07T09:11:59;22.10;;;7.53;;
20970;SDS011;10644;48.834;10.088;2023-03-07T09:14:24;14.70;;;6.28;;
20970;SDS011;10644;48.834;10.088;2023-03-07T09:16:50;13.67;;;7.63;;
20970;SDS011;10644;48.834;10.088;2023-03-07T09:19:19;14.77;;;7.17;;
20970;SDS011;10644;48.834;10.088;2023-03-07T09:24:32;16.65;;;7.45;;
20970;SDS011;10644;48.834;10.088;2023-03-07T09:26:57;19.00;;;7.80;;
20970;SDS011;10644;48.834;10.088;2023-03-07T09:29:23;15.53;;;7.33;;
20970;SDS011;10644;48.834;10.088;2023-03-07T09:32:04;13.57;;;5.82;;
20970;SDS011;10644;48.834;10.088;2023-03-07T09:34:32;13.85;;;7.10;;
20970;SDS011;10644;48.834;10.088;2023-03-07T09:37:05;16.25;;;7.70;;
20970;SDS011;10644;48.834;10.088;2023-03-07T09:39:36;20.83;;;8.73;;
20970;SDS011;10644;48.834;10.088;2023-03-07T09:45:03;15.60;;;8.45;;
20970;SDS011;10644;48.834;10.088;2023-03-07T09:47:44;17.15;;;9.50;;
20970;SDS011;10644;48.834;10.088;2023-03-07T09:56:30;17.60;;;7.80;;
20970;SDS011;10644;48.834;10.088;2023-03-07T09:59:12;15.20;;;5.75;;
20970;SDS011;10644;48.834;10.088;2023-03-07T10:05:21;15.23;;;7.72;;
20970;SDS011;10644;48.834;10.088;2023-03-07T10:08:01;16.40;;;7.68;;
20970;SDS011;10644;48.834;10.088;2023-03-07T10:10:42;17.83;;;7.82;;
20970;SDS011;10644;48.834;10.088;2023-03-07T10:19:30;22.95;;;8.45;;
20970;SDS011;10644;48.834;10.088;2023-03-07T10:27:24;11.32;;;5.22;;
20970;SDS011;10644;48.834;10.088;2023-03-07T10:30:04;12.98;;;6.95;;
20970;SDS011;10644;48.834;10.088;2023-03-07T10:35:22;16.20;;;6.28;;
20970;SDS011;10644;48.834;10.088;2023-03-07T10:38:03;14.35;;;7.20;;
20970;SDS011;10644;48.834;10.088;2023-03-07T10:40:56;11.98;;;6.55;;
20970;SDS011;10644;48.834;10.088;2023-03-07T10:43:45;12.50;;;6.90;;
20970;SDS011;10644;48.834;10.088;2023-03-07T10:52:25;13.55;;;7.18;;
20970;SDS011;10644;48.834;10.088;2023-03-07T10:54:53;13.10;;;7.00;;
20970;SDS011;10644;48.834;10.088;2023-03-07T10:57:29;12.48;;;6.80;;
20970;SDS011;10644;48.834;10.088;2023-03-07T10:59:54;13.48;;;6.32;;
20970;SDS011;10644;48.834;10.088;2023-03-07T11:02:44;11.77;;;6.57;;
20970;SDS011;10644;48.834;10.088;2023-03-07T11:13:51;13.82;;;4.93;;
20970;SDS011;10644;48.834;10.088;2023-03-07T11:16:29;12.02;;;6.15;;
20970;SDS011;10644;48.834;10.088;2023-03-07T11:24:15;11.88;;;6.85;;
20970;SDS011;10644;48.834;10.088;2023-03-07T11:26:53;14.93;;;7.22;;
20970;SDS011;10644;48.834;10.088;2023-03-07T11:32:37;13.63;;;5.95;;
20970;SDS011;10644;48.834;10.088;2023-03-07T12:02:01;13.32;;;6.72;;
20970;SDS011;10644;48.834;10.088;2023-03-07T12:28:55;14.13;;;6.88;;
20970;SDS011;10644;48.834;10.088;2023-03-07T12:31:35;9.73;;;5.38;;
20970;SDS011;10644;48.834;10.088;2023-03-07T12:34:14;11.05;;;6.60;;
20970;SDS011;10644;48.834;10.088;2023-03-07T12:57:47;16.00;;;7.43;;
20970;SDS011;10644;48.834;10.088;2023-03-07T13:00:39;11.95;;;6.10;;
20970;SDS011;10644;48.834;10.088;2023-03-07T13:06:17;16.05;;;7.50;;
20970;SDS011;10644;48.834;10.088;2023-03-07T13:08:47;15.65;;;7.72;;
20970;SDS011;10644;48.834;10.088;2023-03-07T13:11:23;17.10;;;7.70;;
20970;SDS011;10644;48.834;10.088;2023-03-07T13:13:57;15.30;;;7.47;;
20970;SDS011;10644;48.834;10.088;2023-03-07T13:34:02;29.23;;;6.30;;
20970;SDS011;10644;48.834;10.088;2023-03-07T14:01:49;25.95;;;8.95;;
20970;SDS011;10644;48.834;10.088;2023-03-07T14:10:29;26.08;;;11.35;;
20970;SDS011;10644;48.834;10.088;2023-03-07T14:27:14;18.25;;;7.13;;
20970;SDS011;10644;48.834;10.088;2023-03-07T14:29:51;11.27;;;6.40;;
20970;SDS011;10644;48.834;10.088;2023-03-07T14:32:26;13.02;;;6.75;;
20970;SDS011;10644;48.834;10.088;2023-03-07T14:43:14;10.77;;;4.93;;
20970;SDS011;10644;48.834;10.088;2023-03-07T14:52:03;7.15;;;4.63;;
20970;SDS011;10644;48.834;10.088;2023-03-07T14:54:39;7.55;;;4.93;;
20970;SDS011;10644;48.834;10.088;2023-03-07T15:06:22;8.43;;;4.78;;
20970;SDS011;10644;48.834;10.088;2023-03-07T15:08:55;12.18;;;5.60;;
20970;SDS011;10644;48.834;10.088;2023-03-07T15:17:54;14.18;;;5.95;;
20970;SDS011;10644;48.834;10.088;2023-03-07T15:20:27;9.57;;;5.25;;
20970;SDS011;10644;48.834;10.088;2023-03-07T15:28:45;10.75;;;5.45;;
20970;SDS011;10644;48.834;10.088;2023-03-07T15:31:21;8.77;;;5.82;;
20970;SDS011;10644;48.834;10.088;2023-03-07T15:33:49;9.70;;;5.43;;
20970;SDS011;10644;48.834;10.088;2023-03-07T15:42:07;8.57;;;5.32;;
20970;SDS011;10644;48.834;10.088;2023-03-07T15:45:24;10.30;;;5.85;;
20970;SDS011;10644;48.834;10.088;2023-03-07T15:48:08;10.85;;;5.47;;
20970;SDS011;10644;48.834;10.088;2023-03-07T15:50:34;12.48;;;6.50;;
20970;SDS011;10644;48.834;10.088;2023-03-07T15:53:05;12.18;;;5.30;;
20970;SDS011;10644;48.834;10.088;2023-03-07T15:55:33;6.68;;;4.35;;
20970;SDS011;10644;48.834;10.088;2023-03-07T15:58:10;8.07;;;4.30;;
20970;SDS011;10644;48.834;10.088;2023-03-07T16:06:03;15.68;;;5.72;;
20970;SDS011;10644;48.834;10.088;2023-03-07T16:08:36;13.65;;;4.90;;
20970;SDS011;10644;48.834;10.088;2023-03-07T16:11:13;11.52;;;6.03;;
20970;SDS011;10644;48.834;10.088;2023-03-07T16:13:47;13.75;;;4.88;;
20970;SDS011;10644;48.834;10.088;2023-03-07T16:21:56;8.50;;;5.13;;
20970;SDS011;10644;48.834;10.088;2023-03-07T16:24:22;15.95;;;6.55;;
20970;SDS011;10644;48.834;10.088;2023-03-07T16:26:48;14.70;;;6.00;;
20970;SDS011;10644;48.834;10.088;2023-03-07T16:29:20;15.10;;;6.40;;
20970;SDS011;10644;48.834;10.088;2023-03-07T16:31:51;8.52;;;5.50;;
20970;SDS011;10644;48.834;10.088;2023-03-07T16:36:59;19.25;;;6.38;;
20970;SDS011;10644;48.834;10.088;2023-03-07T16:39:34;11.50;;;5.68;;
20970;SDS011;10644;48.834;10.088;2023-03-07T16:45:37;9.20;;;5.32;;
20970;SDS011;10644;48.834;10.088;2023-03-07T16:50:49;10.65;;;5.50;;
20970;SDS011;10644;48.834;10.088;2023-03-07T16:53:22;10.77;;;5.80;;
20970;SDS011;10644;48.834;10.088;2023-03-07T16:55:48;12.70;;;6.90;;
20970;SDS011;10644;48.834;10.088;2023-03-07T16:58:26;11.70;;;5.63;;
20970;SDS011;10644;48.834;10.088;2023-03-07T17:00:56;12.73;;;6.20;;
20970;SDS011;10644;48.834;10.088;2023-03-07T17:06:31;29.15;;;8.93;;
20970;SDS011;10644;48.834;10.088;2023-03-07T17:09:07;12.93;;;5.32;;
20970;SDS011;10644;48.834;10.088;2023-03-07T17:11:37;8.45;;;5.45;;
20970;SDS011;10644;48.834;10.088;2023-03-07T17:14:06;9.70;;;5.88;;
20970;SDS011;10644;48.834;10.088;2023-03-07T17:16:44;6.90;;;5.00;;
20970;SDS011;10644;48.834;10.088;2023-03-07T17:22:09;16.88;;;7.10;;
20970;SDS011;10644;48.834;10.088;2023-03-07T17:24:43;9.05;;;6.60;;
20970;SDS011;10644;48.834;10.088;2023-03-07T17:32:45;13.60;;;7.00;;
20970;SDS011;10644;48.834;10.088;2023-03-07T17:35:11;10.90;;;5.97;;
20970;SDS011;10644;48.834;10.088;2023-03-07T17:37:39;16.23;;;7.53;;
20970;SDS011;10644;48.834;10.088;2023-03-07T17:45:31;9.93;;;6.53;;
20970;SDS011;10644;48.834;10.088;2023-03-07T17:50:39;25.23;;;15.85;;
20970;SDS011;10644;48.834;10.088;2023-03-07T17:53:09;28.52;;;12.98;;
20970;SDS011;10644;48.834;10.088;2023-03-07T18:01:27;17.95;;;10.38;;
20970;SDS011;10644;48.834;10.088;2023-03-07T18:04:00;51.20;;;14.27;;
20970;SDS011;10644;48.834;10.088;2023-03-07T18:09:25;17.20;;;8.43;;
20970;SDS011;10644;48.834;10.088;2023-03-07T18:11:58;20.70;;;9.38;;
20970;SDS011;10644;48.834;10.088;2023-03-07T18:14:37;25.63;;;15.32;;
20970;SDS011;10644;48.834;10.088;2023-03-07T18:17:21;26.33;;;14.73;;
20970;SDS011;10644;48.834;10.088;2023-03-07T18:19:48;12.18;;;8.60;;
20970;SDS011;10644;48.834;10.088;2023-03-07T18:22:29;20.30;;;7.95;;
20970;SDS011;10644;48.834;10.088;2023-03-07T18:25:02;13.77;;;7.80;;
20970;SDS011;10644;48.834;10.088;2023-03-07T18:27:39;16.10;;;7.97;;
20970;SDS011;10644;48.834;10.088;2023-03-07T18:32:37;16.48;;;7.95;;
20970;SDS011;10644;48.834;10.088;2023-03-07T18:35:03;27.27;;;10.25;;
20970;SDS011;10644;48.834;10.088;2023-03-07T18:37:37;15.60;;;8.45;;
20970;SDS011;10644;48.834;10.088;2023-03-07T18:40:16;18.52;;;8.05;;
20970;SDS011;10644;48.834;10.088;2023-03-07T18:48:30;24.13;;;9.50;;
20970;SDS011;10644;48.834;10.088;2023-03-07T18:53:56;16.25;;;8.52;;
20970;SDS011;10644;48.834;10.088;2023-03-07T18:56:25;17.13;;;8.02;;
20970;SDS011;10644;48.834;10.088;2023-03-07T18:58:53;14.82;;;7.80;;
20970;SDS011;10644;48.834;10.088;2023-03-07T19:01:38;15.60;;;8.00;;
20970;SDS011;10644;48.834;10.088;2023-03-07T19:04:07;16.65;;;8.00;;
20970;SDS011;10644;48.834;10.088;2023-03-07T19:09:27;11.68;;;7.40;;
20970;SDS011;10644;48.834;10.088;2023-03-07T19:11:58;16.25;;;7.35;;
20970;SDS011;10644;48.834;10.088;2023-03-07T19:14:26;10.15;;;6.15;;
20970;SDS011;10644;48.834;10.088;2023-03-07T19:16:51;11.77;;;7.20;;
20970;SDS011;10644;48.834;10.088;2023-03-07T19:19:17;22.60;;;8.13;;
20970;SDS011;10644;48.834;10.088;2023-03-07T19:21:49;13.40;;;7.03;;
20970;SDS011;10644;48.834;10.088;2023-03-07T19:27:34;13.02;;;6.80;;
20970;SDS011;10644;48.834;10.088;2023-03-07T19:30:00;18.92;;;7.65;;
20970;SDS011;10644;48.834;10.088;2023-03-07T19:32:35;17.43;;;7.90;;
20970;SDS011;10644;48.834;10.088;2023-03-07T19:35:09;10.18;;;5.63;;
20970;SDS011;10644;48.834;10.088;2023-03-07T19:40:21;15.38;;;6.40;;
20970;SDS011;10644;48.834;10.088;2023-03-07T19:45:38;9.32;;;4.32;;
20970;SDS011;10644;48.834;10.088;2023-03-07T19:48:04;10.25;;;5.25;;
20970;SDS011;10644;48.834;10.088;2023-03-07T19:50:33;12.70;;;5.90;;
20970;SDS011;10644;48.834;10.088;2023-03-07T19:55:47;10.88;;;5.45;;
20970;SDS011;10644;48.834;10.088;2023-03-07T19:58:29;14.15;;;6.13;;
20970;SDS011;10644;48.834;10.088;2023-03-07T20:01:10;12.05;;;6.10;;
20970;SDS011;10644;48.834;10.088;2023-03-07T20:09:23;9.25;;;5.57;;
20970;SDS011;10644;48.834;10.088;2023-03-07T20:11:54;11.65;;;6.18;;
20970;SDS011;10644;48.834;10.088;2023-03-07T20:14:21;11.35;;;6.07;;
20970;SDS011;10644;48.834;10.088;2023-03-07T20:22:32;13.48;;;6.07;;
20970;SDS011;10644;48.834;10.088;2023-03-07T20:24:59;23.37;;;11.43;;
20970;SDS011;10644;48.834;10.088;2023-03-07T20:27:24;15.90;;;7.60;;
20970;SDS011;10644;48.834;10.088;2023-03-07T20:29:50;17.77;;;6.50;;
20970;SDS011;10644;48.834;10.088;2023-03-07T20:32:16;17.07;;;6.77;;
20970;SDS011;10644;48.834;10.088;2023-03-07T20:34:48;11.03;;;6.03;;
20970;SDS011;10644;48.834;10.088;2023-03-07T20:37:15;15.93;;;8.00;;
20970;SDS011;10644;48.834;10.088;2023-03-07T20:39:45;14.82;;;8.27;;
20970;SDS011;10644;48.834;10.088;2023-03-07T20:42:10;15.70;;;7.80;;
20970;SDS011;10644;48.834;10.088;2023-03-07T20:44:43;13.33;;;6.17;;
20970;SDS011;10644;48.834;10.088;2023-03-07T20:50:08;13.75;;;7.35;;
20970;SDS011;10644;48.834;10.088;2023-03-07T20:52:42;11.70;;;6.75;;
20970;SDS011;10644;48.834;10.088;2023-03-07T20:55:09;13.30;;;7.70;;
20970;SDS011;10644;48.834;10.088;2023-03-07T20:57:38;15.05;;;7.13;;
20970;SDS011;10644;48.834;10.088;2023-03-07T21:00:06;16.73;;;8.60;;
20970;SDS011;10644;48.834;10.088;2023-03-07T21:02:36;16.60;;;9.13;;
20970;SDS011;10644;48.834;10.088;2023-03-07T21:05:08;18.15;;;8.10;;
20970;SDS011;10644;48.834;10.088;2023-03-07T21:07:37;29.20;;;9.30;;
20970;SDS011;10644;48.834;10.088;2023-03-07T21:10:15;15.55;;;8.48;;
20970;SDS011;10644;48.834;10.088;2023-03-07T21:12:40;22.65;;;8.50;;
20970;SDS011;10644;48.834;10.088;2023-03-07T21:20:44;43.30;;;12.43;;
20970;SDS011;10644;48.834;10.088;2023-03-07T21:28:45;15.60;;;7.97;;
20970;SDS011;10644;48.834;10.088;2023-03-07T21:31:20;14.65;;;6.45;;
20970;SDS011;10644;48.834;10.088;2023-03-07T21:33:51;21.40;;;8.85;;
20970;SDS011;10644;48.834;10.088;2023-03-07T21:36:31;15.93;;;7.70;;
20970;SDS011;10644;48.834;10.088;2023-03-07T21:45:05;13.15;;;7.45;;
20970;SDS011;10644;48.834;10.088;2023-03-07T21:50:32;18.38;;;7.90;;
20970;SDS011;10644;48.834;10.088;2023-03-07T21:52:58;13.43;;;7.63;;
20970;SDS011;10644;48.834;10.088;2023-03-07T21:55:25;13.20;;;6.93;;
20970;SDS011;10644;48.834;10.088;2023-03-07T21:58:00;20.20;;;7.65;;
20970;SDS011;10644;48.834;10.088;2023-03-07T22:00:31;11.10;;;6.50;;
20970;SDS011;10644;48.834;10.088;2023-03-07T22:03:00;16.90;;;8.10;;
20970;SDS011;10644;48.834;10.088;2023-03-07T22:05:40;13.07;;;7.47;;
20970;SDS011;10644;48.834;10.088;2023-03-07T22:08:15;14.38;;;6.10;;
20970;SDS011;10644;48.834;10.088;2023-03-07T22:10:57;12.88;;;6.50;;
20970;SDS011;10644;48.834;10.088;2023-03-07T22:13:30;13.70;;;7.63;;
20970;SDS011;10644;48.834;10.088;2023-03-07T22:16:02;12.27;;;5.95;;
20970;SDS011;10644;48.834;10.088;2023-03-07T22:31:53;10.35;;;5.90;;
20970;SDS011;10644;48.834;10.088;2023-03-07T22:34:19;10.10;;;6.20;;
20970;SDS011;10644;48.834;10.088;2023-03-07T22:36:51;17.67;;;6.32;;
20970;SDS011;10644;48.834;10.088;2023-03-07T22:39:34;10.73;;;5.38;;
20970;SDS011;10644;48.834;10.088;2023-03-07T22:42:06;17.55;;;7.22;;
20970;SDS011;10644;48.834;10.088;2023-03-07T22:44:40;13.38;;;6.25;;
20970;SDS011;10644;48.834;10.088;2023-03-07T22:47:12;15.60;;;5.88;;
20970;SDS011;10644;48.834;10.088;2023-03-07T22:52:21;9.75;;;4.70;;
20970;SDS011;10644;48.834;10.088;2023-03-07T22:54:46;11.68;;;6.00;;
20970;SDS011;10644;48.834;10.088;2023-03-07T22:57:19;11.13;;;6.40;;
20970;SDS011;10644;48.834;10.088;2023-03-07T22:59:59;13.15;;;5.45;;